Weather at Ecuvillens Airport

Public forecast

Using degrees Celsius for public forecast. Weather courtesy of forecast.io.

Closest aviation weather report (METAR) to Ecuvillens Airport

Closest report is Payerne Air Base, 8.5 nm (15.7 km) NW. Retrieved 2021/07/28 16:50 UTC (25 minutes ago):

LSMP 281650Z AUTO 27007KT 240V320 9999NDV FEW051 24/14 Q1016 RMK

Closest aviation forecast (TAF) to Ecuvillens Airport

Forecast is more than 6 hours old.

Closest forecast is Payerne Air Base, 8.5 nm (15.7 km) NW. Retrieved 2021/07/28 10:00 UTC (7 hours ago):

TAF LSMP 280925Z 2810/2916 21008KT 9999 BKN030 BECMG 2812/2814 CAVOK